Airfield :
LOGIN :

Register | Disclaimer

   EN    FR    IT 

 










Legend :    VFR   Marginal VFR   IFR   Intensive IFR   Very Intensive IFR
Visi :
Ceiling :
>= 8 km
>= 3000ft
5 to 8 km
1000 to 3000 ft
1500m to 5 km
500 to 1000 ft
800 to 1500m
200 to 500 ft
< 800m
< 200 ft
Symbols :   Thunderstorms  Fog  Heavy snow  Heavy precipitations  Wind > 20 kt
SIGMETs :     Misc.  Thunderstorms  Icing  Turbulence  Mountain Waves  Volcanic Ashes






- Airport Elevation : 526 ft
- IATA code : LTN


EGGW - London Luton

CURRENT METAR :
  • 141520Z AUTO 25013KT 9999 SCT047 12/02 Q1020

EXPIRED METARs :
  • 141450Z AUTO 27015KT 9999 BKN046 13/02 Q1021
  • 141420Z AUTO 26013KT 230V300 9999 BKN046 13/03 Q1021
  • 141350Z AUTO 28012KT 9999 BKN045 12/02 Q1022
  • 141320Z AUTO 24013KT 9999 SCT046 13/03 Q1022
  • 141250Z AUTO 25012KT 9999 SCT045 14/03 Q1022
  • 141220Z AUTO 27011KT 9999 NCD 13/02 Q1023
  • 141150Z AUTO 26009KT 220V310 9999 FEW044 13/03 Q1023
  • 141120Z AUTO 24010KT 200V290 9999 FEW040 12/03 Q1023
  • 141050Z AUTO 27008KT 230V310 9999 FEW037 12/03 Q1024

TAF TAF EGGW
Valid from the 14 at 12:00 until the 15 at 12:00 UTC


141053Z 1412/1512 27009KT 9999 SCT040
BECMG 1500/1503 21014KT
TEMPO 1503/1509 22017G27KT 6000 RA SHRA
PROB30
TEMPO 1504/1509 23023G37KT 4000 +RA +SHRA BKN014
BECMG 1508/1511 28018G28KT
PROB30
TEMPO 1510/1512 7000 SHRA
ATIS : +44 1582 395 204



MET'MAP, your aeronautical weather chart ! - Copyright ORBIFLY December 2007 - Disclaimer

ORBIFLY MET'MAP TEAM :

Programming & Development : Alexandra Zaïnal
Original concept : Baudouin d'Aumeries
Technical & hardware support : Manuel Goepfert
Assistance : Marc-Olivier Méhu




SOURCES & CREDITS :

   NOAA